sensor_id;sensor_type;location;lat;lon;timestamp;pressure;altitude;pressure_sealevel;temperature;humidity
17362;BME280;8798;51.938;4.348;2023-02-03T00:00:41;102593.63;;;10.52;83.30
17362;BME280;8798;51.938;4.348;2023-02-03T00:03:08;102588.16;;;10.54;83.24
17362;BME280;8798;51.938;4.348;2023-02-03T00:05:36;102598.06;;;10.53;83.60
17362;BME280;8798;51.938;4.348;2023-02-03T00:08:06;102605.97;;;10.55;83.65
17362;BME280;8798;51.938;4.348;2023-02-03T00:10:35;102603.19;;;10.57;83.28
17362;BME280;8798;51.938;4.348;2023-02-03T00:13:05;102605.03;;;10.56;83.07
17362;BME280;8798;51.938;4.348;2023-02-03T00:15:35;102590.94;;;10.52;83.25
17362;BME280;8798;51.938;4.348;2023-02-03T00:18:03;102575.13;;;10.48;83.11
17362;BME280;8798;51.938;4.348;2023-02-03T00:20:31;102548.72;;;10.42;83.24
17362;BME280;8798;51.938;4.348;2023-02-03T00:23:03;102531.94;;;10.38;83.00
17362;BME280;8798;51.938;4.348;2023-02-03T00:25:31;102533.78;;;10.38;83.34
17362;BME280;8798;51.938;4.348;2023-02-03T00:27:59;102550.56;;;10.41;83.28
17362;BME280;8798;51.938;4.348;2023-02-03T00:30:29;102567.31;;;10.45;83.37
17362;BME280;8798;51.938;4.348;2023-02-03T00:32:58;102569.88;;;10.46;83.14
17362;BME280;8798;51.938;4.348;2023-02-03T00:35:27;102581.41;;;10.48;83.50
17362;BME280;8798;51.938;4.348;2023-02-03T00:37:56;102590.19;;;10.50;83.16
17362;BME280;8798;51.938;4.348;2023-02-03T00:40:25;102596.44;;;10.51;83.18
17362;BME280;8798;51.938;4.348;2023-02-03T00:42:55;102598.16;;;10.52;83.04
17362;BME280;8798;51.938;4.348;2023-02-03T00:45:23;102603.44;;;10.53;83.43
17362;BME280;8798;51.938;4.348;2023-02-03T00:47:51;102610.41;;;10.56;82.80
17362;BME280;8798;51.938;4.348;2023-02-03T00:50:20;102621.03;;;10.58;83.39
17362;BME280;8798;51.938;4.348;2023-02-03T00:52:48;102621.88;;;10.58;83.09
17362;BME280;8798;51.938;4.348;2023-02-03T00:55:16;102631.69;;;10.59;83.22
17362;BME280;8798;51.938;4.348;2023-02-03T00:57:44;102629.84;;;10.60;83.38
17362;BME280;8798;51.938;4.348;2023-02-03T01:00:12;102635.13;;;10.61;83.03
17362;BME280;8798;51.938;4.348;2023-02-03T01:02:40;102643.06;;;10.63;83.34
17362;BME280;8798;51.938;4.348;2023-02-03T01:05:08;102645.66;;;10.64;83.28
17362;BME280;8798;51.938;4.348;2023-02-03T01:07:37;102656.19;;;10.67;82.83
17362;BME280;8798;51.938;4.348;2023-02-03T01:10:05;102666.84;;;10.69;83.12
17362;BME280;8798;51.938;4.348;2023-02-03T01:12:33;102672.09;;;10.70;82.88
17362;BME280;8798;51.938;4.348;2023-02-03T01:15:01;102685.34;;;10.73;82.72
17362;BME280;8798;51.938;4.348;2023-02-03T01:17:29;102692.41;;;10.74;82.92
17362;BME280;8798;51.938;4.348;2023-02-03T01:19:57;102696.72;;;10.77;83.18
17362;BME280;8798;51.938;4.348;2023-02-03T01:22:24;102704.69;;;10.79;82.71
17362;BME280;8798;51.938;4.348;2023-02-03T01:24:54;102701.03;;;10.80;83.08
17362;BME280;8798;51.938;4.348;2023-02-03T01:27:22;102708.13;;;10.81;83.12
17362;BME280;8798;51.938;4.348;2023-02-03T01:29:50;102711.56;;;10.83;83.00
17362;BME280;8798;51.938;4.348;2023-02-03T01:32:17;102723.06;;;10.85;82.91
17362;BME280;8798;51.938;4.348;2023-02-03T01:34:45;102724.91;;;10.84;82.67
17362;BME280;8798;51.938;4.348;2023-02-03T01:37:13;102721.22;;;10.85;82.46
17362;BME280;8798;51.938;4.348;2023-02-03T01:39:42;102716.75;;;10.86;82.71
17362;BME280;8798;51.938;4.348;2023-02-03T01:42:14;102728.22;;;10.88;82.86
17362;BME280;8798;51.938;4.348;2023-02-03T01:44:43;102727.28;;;10.89;82.46
17362;BME280;8798;51.938;4.348;2023-02-03T01:47:16;102735.22;;;10.90;82.83
17362;BME280;8798;51.938;4.348;2023-02-03T01:49:48;102727.13;;;10.90;82.27
17362;BME280;8798;51.938;4.348;2023-02-03T01:52:18;102733.41;;;10.91;82.72
17362;BME280;8798;51.938;4.348;2023-02-03T01:54:47;102726.28;;;10.90;82.34
17362;BME280;8798;51.938;4.348;2023-02-03T01:57:23;102723.59;;;10.90;82.71
17362;BME280;8798;51.938;4.348;2023-02-03T01:59:55;102718.22;;;10.90;82.33
17362;BME280;8798;51.938;4.348;2023-02-03T02:02:24;102715.53;;;10.90;82.70
17362;BME280;8798;51.938;4.348;2023-02-03T02:04:55;102708.44;;;10.89;82.02
17362;BME280;8798;51.938;4.348;2023-02-03T02:07:26;102711.00;;;10.90;81.95
17362;BME280;8798;51.938;4.348;2023-02-03T02:09:55;102713.69;;;10.90;82.10
17362;BME280;8798;51.938;4.348;2023-02-03T02:12:25;102710.06;;;10.91;82.51
17362;BME280;8798;51.938;4.348;2023-02-03T02:14:53;102718.88;;;10.93;82.34
17362;BME280;8798;51.938;4.348;2023-02-03T02:17:39;102714.47;;;10.92;82.04
17362;BME280;8798;51.938;4.348;2023-02-03T02:20:33;102720.72;;;10.93;82.07
17362;BME280;8798;51.938;4.348;2023-02-03T02:23:32;102717.91;;;10.94;81.83
17362;BME280;8798;51.938;4.348;2023-02-03T02:26:22;102714.38;;;10.94;81.59
17362;BME280;8798;51.938;4.348;2023-02-03T02:29:11;102702.94;;;10.90;82.11
17362;BME280;8798;51.938;4.348;2023-02-03T02:31:51;102689.63;;;10.89;81.59
17362;BME280;8798;51.938;4.348;2023-02-03T02:34:33;102683.41;;;10.88;81.98
17362;BME280;8798;51.938;4.348;2023-02-03T02:37:08;102681.56;;;10.89;81.55
17362;BME280;8798;51.938;4.348;2023-02-03T02:39:45;102683.41;;;10.88;81.92
17362;BME280;8798;51.938;4.348;2023-02-03T02:42:20;102677.13;;;10.88;81.47
17362;BME280;8798;51.938;4.348;2023-02-03T02:44:55;102683.41;;;10.88;81.43
17362;BME280;8798;51.938;4.348;2023-02-03T02:47:27;102685.09;;;10.89;81.82
17362;BME280;8798;51.938;4.348;2023-02-03T02:49:59;102687.69;;;10.91;81.70
17362;BME280;8798;51.938;4.348;2023-02-03T02:52:29;102681.44;;;10.90;81.47
17362;BME280;8798;51.938;4.348;2023-02-03T02:55:02;102682.31;;;10.91;81.74
17362;BME280;8798;51.938;4.348;2023-02-03T02:57:33;102684.03;;;10.92;81.41
17362;BME280;8798;51.938;4.348;2023-02-03T03:00:04;102680.47;;;10.91;81.50
17362;BME280;8798;51.938;4.348;2023-02-03T03:02:35;102681.34;;;10.92;81.58
17362;BME280;8798;51.938;4.348;2023-02-03T03:05:04;102678.66;;;10.92;81.12
17362;BME280;8798;51.938;4.348;2023-02-03T03:07:39;102679.50;;;10.92;81.46
17362;BME280;8798;51.938;4.348;2023-02-03T03:10:11;102678.66;;;10.92;81.19
17362;BME280;8798;51.938;4.348;2023-02-03T03:12:44;102671.56;;;10.91;81.24
17362;BME280;8798;51.938;4.348;2023-02-03T03:15:17;102670.69;;;10.90;81.14
17362;BME280;8798;51.938;4.348;2023-02-03T03:17:53;102663.50;;;10.91;80.87
17362;BME280;8798;51.938;4.348;2023-02-03T03:20:24;102667.91;;;10.92;81.22
17362;BME280;8798;51.938;4.348;2023-02-03T03:22:56;102667.91;;;10.92;80.66
17362;BME280;8798;51.938;4.348;2023-02-03T03:25:29;102656.38;;;10.90;80.97
17362;BME280;8798;51.938;4.348;2023-02-03T03:28:02;102657.47;;;10.87;80.62
17362;BME280;8798;51.938;4.348;2023-02-03T03:30:34;102647.56;;;10.88;80.78
17362;BME280;8798;51.938;4.348;2023-02-03T03:33:05;102639.50;;;10.88;80.95
17362;BME280;8798;51.938;4.348;2023-02-03T03:35:38;102643.06;;;10.88;81.01
17362;BME280;8798;51.938;4.348;2023-02-03T03:38:10;102652.00;;;10.89;80.61
17362;BME280;8798;51.938;4.348;2023-02-03T03:40:43;102644.88;;;10.88;80.72
17362;BME280;8798;51.938;4.348;2023-02-03T03:43:16;102648.53;;;10.87;80.80
17362;BME280;8798;51.938;4.348;2023-02-03T03:45:49;102636.09;;;10.86;80.91
17362;BME280;8798;51.938;4.348;2023-02-03T03:48:26;102628.97;;;10.85;80.46
17362;BME280;8798;51.938;4.348;2023-02-03T03:50:58;102629.81;;;10.85;80.84
17362;BME280;8798;51.938;4.348;2023-02-03T03:53:29;102624.56;;;10.84;80.56
17362;BME280;8798;51.938;4.348;2023-02-03T03:56:00;102620.16;;;10.83;80.29
17362;BME280;8798;51.938;4.348;2023-02-03T03:58:30;102610.38;;;10.82;80.49
17362;BME280;8798;51.938;4.348;2023-02-03T04:01:00;102611.22;;;10.82;80.65
17362;BME280;8798;51.938;4.348;2023-02-03T04:03:32;102608.66;;;10.81;80.79
17362;BME280;8798;51.938;4.348;2023-02-03T04:06:05;102602.41;;;10.80;80.67
17362;BME280;8798;51.938;4.348;2023-02-03T04:08:33;102606.84;;;10.81;80.68
17362;BME280;8798;51.938;4.348;2023-02-03T04:11:00;102607.69;;;10.82;80.52
17362;BME280;8798;51.938;4.348;2023-02-03T04:13:28;102616.59;;;10.82;80.27
17362;BME280;8798;51.938;4.348;2023-02-03T04:15:56;102610.47;;;10.80;80.22
17362;BME280;8798;51.938;4.348;2023-02-03T04:18:24;102610.38;;;10.82;80.40
17362;BME280;8798;51.938;4.348;2023-02-03T04:20:53;102617.47;;;10.83;80.23
17362;BME280;8798;51.938;4.348;2023-02-03T04:23:20;102622.84;;;10.83;80.26
17362;BME280;8798;51.938;4.348;2023-02-03T04:25:48;102619.06;;;10.85;80.20
17362;BME280;8798;51.938;4.348;2023-02-03T04:28:16;102629.72;;;10.87;79.96
17362;BME280;8798;51.938;4.348;2023-02-03T04:30:44;102639.50;;;10.88;80.37
17362;BME280;8798;51.938;4.348;2023-02-03T04:33:12;102643.94;;;10.89;79.98
17362;BME280;8798;51.938;4.348;2023-02-03T04:35:39;102642.00;;;10.91;79.88
17362;BME280;8798;51.938;4.348;2023-02-03T04:38:09;102642.09;;;10.89;80.01
17362;BME280;8798;51.938;4.348;2023-02-03T04:40:36;102632.41;;;10.87;80.06
17362;BME280;8798;51.938;4.348;2023-02-03T04:43:05;102619.06;;;10.85;80.08
17362;BME280;8798;51.938;4.348;2023-02-03T04:45:34;102612.97;;;10.83;79.86
17362;BME280;8798;51.938;4.348;2023-02-03T04:48:02;102594.34;;;10.80;79.72
17362;BME280;8798;51.938;4.348;2023-02-03T04:50:30;102584.81;;;10.76;79.82
17362;BME280;8798;51.938;4.348;2023-02-03T04:52:58;102565.34;;;10.72;80.21
17362;BME280;8798;51.938;4.348;2023-02-03T04:55:28;102542.34;;;10.68;79.85
17362;BME280;8798;51.938;4.348;2023-02-03T04:57:56;102531.81;;;10.65;79.71
17362;BME280;8798;51.938;4.348;2023-02-03T05:00:24;102518.59;;;10.62;79.73
17362;BME280;8798;51.938;4.348;2023-02-03T05:02:52;102531.06;;;10.63;79.92
17362;BME280;8798;51.938;4.348;2023-02-03T05:05:21;102536.31;;;10.65;79.67
17362;BME280;8798;51.938;4.348;2023-02-03T05:07:48;102543.44;;;10.66;79.84
17362;BME280;8798;51.938;4.348;2023-02-03T05:10:16;102539.84;;;10.65;79.54
17362;BME280;8798;51.938;4.348;2023-02-03T05:12:45;102545.13;;;10.67;79.70
17362;BME280;8798;51.938;4.348;2023-02-03T05:15:13;102546.00;;;10.67;80.11
17362;BME280;8798;51.938;4.348;2023-02-03T05:17:41;102548.69;;;10.67;79.59
17362;BME280;8798;51.938;4.348;2023-02-03T05:20:10;102562.88;;;10.69;79.62
17362;BME280;8798;51.938;4.348;2023-02-03T05:22:38;102568.16;;;10.71;79.74
17362;BME280;8798;51.938;4.348;2023-02-03T05:25:07;102561.88;;;10.70;79.58
17362;BME280;8798;51.938;4.348;2023-02-03T05:27:36;102565.56;;;10.69;79.97
17362;BME280;8798;51.938;4.348;2023-02-03T05:30:08;102559.34;;;10.69;79.99
17362;BME280;8798;51.938;4.348;2023-02-03T05:32:36;102560.19;;;10.69;79.56
17362;BME280;8798;51.938;4.348;2023-02-03T05:35:04;102563.84;;;10.68;80.06
17362;BME280;8798;51.938;4.348;2023-02-03T05:37:32;102561.16;;;10.68;79.88
17362;BME280;8798;51.938;4.348;2023-02-03T05:40:00;102551.50;;;10.66;79.84
17362;BME280;8798;51.938;4.348;2023-02-03T05:42:45;102544.38;;;10.65;79.76
17362;BME280;8798;51.938;4.348;2023-02-03T05:45:15;102561.25;;;10.67;79.29
17362;BME280;8798;51.938;4.348;2023-02-03T05:47:43;102556.66;;;10.69;79.90
17362;BME280;8798;51.938;4.348;2023-02-03T05:50:11;102573.63;;;10.69;79.91
17362;BME280;8798;51.938;4.348;2023-02-03T05:52:38;102577.06;;;10.71;79.76
17362;BME280;8798;51.938;4.348;2023-02-03T05:55:06;102585.00;;;10.73;79.71
17362;BME280;8798;51.938;4.348;2023-02-03T05:57:34;102584.06;;;10.74;79.98
17362;BME280;8798;51.938;4.348;2023-02-03T06:00:03;102585.88;;;10.73;79.45
17362;BME280;8798;51.938;4.348;2023-02-03T06:02:33;102596.50;;;10.75;79.35
17362;BME280;8798;51.938;4.348;2023-02-03T06:05:01;102606.19;;;10.77;79.21
17362;BME280;8798;51.938;4.348;2023-02-03T06:07:29;102616.75;;;10.81;79.14
17362;BME280;8798;51.938;4.348;2023-02-03T06:09:56;102617.59;;;10.81;79.75
17362;BME280;8798;51.938;4.348;2023-02-03T06:12:25;102610.47;;;10.80;79.27
17362;BME280;8798;51.938;4.348;2023-02-03T06:14:54;102614.91;;;10.81;79.73
17362;BME280;8798;51.938;4.348;2023-02-03T06:17:22;102608.78;;;10.79;79.38
17362;BME280;8798;51.938;4.348;2023-02-03T06:19:51;102606.19;;;10.77;79.52
17362;BME280;8798;51.938;4.348;2023-02-03T06:22:19;102590.28;;;10.74;79.70
17362;BME280;8798;51.938;4.348;2023-02-03T06:24:47;102595.66;;;10.74;79.46
17362;BME280;8798;51.938;4.348;2023-02-03T06:27:16;102578.00;;;10.70;79.31
17362;BME280;8798;51.938;4.348;2023-02-03T06:29:43;102564.72;;;10.69;79.21
17362;BME280;8798;51.938;4.348;2023-02-03T06:32:11;102573.72;;;10.68;79.11
17362;BME280;8798;51.938;4.348;2023-02-03T06:34:39;102549.66;;;10.66;79.15
17362;BME280;8798;51.938;4.348;2023-02-03T06:37:10;102552.44;;;10.65;79.31
17362;BME280;8798;51.938;4.348;2023-02-03T06:39:38;102549.00;;;10.63;79.55
17362;BME280;8798;51.938;4.348;2023-02-03T06:42:06;102549.88;;;10.63;79.53
17362;BME280;8798;51.938;4.348;2023-02-03T06:44:34;102566.63;;;10.67;79.01
17362;BME280;8798;51.938;4.348;2023-02-03T06:47:02;102561.25;;;10.67;79.27
17362;BME280;8798;51.938;4.348;2023-02-03T06:49:30;102571.91;;;10.68;79.37
17362;BME280;8798;51.938;4.348;2023-02-03T06:51:58;102578.00;;;10.70;79.56
17362;BME280;8798;51.938;4.348;2023-02-03T06:54:27;102592.22;;;10.72;79.55
17362;BME280;8798;51.938;4.348;2023-02-03T06:56:55;102598.25;;;10.76;79.02
17362;BME280;8798;51.938;4.348;2023-02-03T06:59:22;102608.88;;;10.77;79.40
17362;BME280;8798;51.938;4.348;2023-02-03T07:01:50;102619.44;;;10.81;79.34
17362;BME280;8798;51.938;4.348;2023-02-03T07:04:18;102624.69;;;10.82;79.34
17362;BME280;8798;51.938;4.348;2023-02-03T07:06:46;102638.03;;;10.84;78.82
17362;BME280;8798;51.938;4.348;2023-02-03T07:09:14;102644.16;;;10.86;79.30
17362;BME280;8798;51.938;4.348;2023-02-03T07:11:43;102650.25;;;10.88;79.02
17362;BME280;8798;51.938;4.348;2023-02-03T07:14:11;102659.19;;;10.88;79.30
17362;BME280;8798;51.938;4.348;2023-02-03T07:16:38;102659.94;;;10.90;79.38
17362;BME280;8798;51.938;4.348;2023-02-03T07:19:06;102660.81;;;10.91;78.92
17362;BME280;8798;51.938;4.348;2023-02-03T07:21:34;102655.53;;;10.89;79.28
17362;BME280;8798;51.938;4.348;2023-02-03T07:24:02;102659.94;;;10.90;79.01
17362;BME280;8798;51.938;4.348;2023-02-03T07:26:30;102668.88;;;10.91;79.07
17362;BME280;8798;51.938;4.348;2023-02-03T07:28:59;102670.59;;;10.92;78.72
17362;BME280;8798;51.938;4.348;2023-02-03T07:31:27;102672.31;;;10.93;79.49
17362;BME280;8798;51.938;4.348;2023-02-03T07:33:55;102675.00;;;10.93;79.31
17362;BME280;8798;51.938;4.348;2023-02-03T07:36:23;102679.31;;;10.95;78.86
17362;BME280;8798;51.938;4.348;2023-02-03T07:38:51;102686.41;;;10.96;79.18
17362;BME280;8798;51.938;4.348;2023-02-03T07:41:18;102693.47;;;10.97;79.29
17362;BME280;8798;51.938;4.348;2023-02-03T07:43:46;102698.75;;;10.99;79.04
17362;BME280;8798;51.938;4.348;2023-02-03T07:46:16;102697.78;;;11.00;78.86
17362;BME280;8798;51.938;4.348;2023-02-03T07:48:43;102710.16;;;11.03;79.24
17362;BME280;8798;51.938;4.348;2023-02-03T07:51:11;102718.13;;;11.04;79.05
17362;BME280;8798;51.938;4.348;2023-02-03T07:53:39;102718.13;;;11.04;79.08
17362;BME280;8798;51.938;4.348;2023-02-03T07:56:09;102720.81;;;11.04;79.31
17362;BME280;8798;51.938;4.348;2023-02-03T07:58:38;102723.41;;;11.06;78.56
17362;BME280;8798;51.938;4.348;2023-02-03T08:01:10;102732.22;;;11.08;78.74
17362;BME280;8798;51.938;4.348;2023-02-03T08:03:40;102729.63;;;11.06;79.21
17362;BME280;8798;51.938;4.348;2023-02-03T08:06:08;102731.34;;;11.07;79.27
17362;BME280;8798;51.938;4.348;2023-02-03T08:08:36;102729.41;;;11.09;79.02
17362;BME280;8798;51.938;4.348;2023-02-03T08:11:04;102740.06;;;11.11;79.10
17362;BME280;8798;51.938;4.348;2023-02-03T08:13:32;102751.59;;;11.13;79.01
17362;BME280;8798;51.938;4.348;2023-02-03T08:16:00;102749.75;;;11.13;78.80
17362;BME280;8798;51.938;4.348;2023-02-03T08:18:29;102756.00;;;11.14;78.74
17362;BME280;8798;51.938;4.348;2023-02-03T08:21:00;102767.38;;;11.17;78.66
17362;BME280;8798;51.938;4.348;2023-02-03T08:23:30;102765.56;;;11.18;79.31
17362;BME280;8798;51.938;4.348;2023-02-03T08:25:58;102773.50;;;11.19;79.15
17362;BME280;8798;51.938;4.348;2023-02-03T08:28:25;102765.44;;;11.19;78.74
17362;BME280;8798;51.938;4.348;2023-02-03T08:30:53;102770.72;;;11.21;78.69
17362;BME280;8798;51.938;4.348;2023-02-03T08:33:23;102782.25;;;11.23;79.09
17362;BME280;8798;51.938;4.348;2023-02-03T08:35:51;102785.78;;;11.24;78.95
17362;BME280;8798;51.938;4.348;2023-02-03T08:38:20;102792.88;;;11.25;78.77
17362;BME280;8798;51.938;4.348;2023-02-03T08:40:48;102796.09;;;11.30;78.77
17362;BME280;8798;51.938;4.348;2023-02-03T08:43:18;102808.59;;;11.31;78.58
17362;BME280;8798;51.938;4.348;2023-02-03T08:45:46;102817.44;;;11.33;78.57
17362;BME280;8798;51.938;4.348;2023-02-03T08:48:14;102803.22;;;11.31;78.58
17362;BME280;8798;51.938;4.348;2023-02-03T08:50:42;102809.56;;;11.30;78.63
17362;BME280;8798;51.938;4.348;2023-02-03T08:53:10;102814.75;;;11.33;79.08
17362;BME280;8798;51.938;4.348;2023-02-03T08:55:39;102819.91;;;11.36;79.02
17362;BME280;8798;51.938;4.348;2023-02-03T08:58:07;102823.53;;;11.35;78.34
17362;BME280;8798;51.938;4.348;2023-02-03T09:00:35;102825.19;;;11.37;79.06
17362;BME280;8798;51.938;4.348;2023-02-03T09:03:03;102820.75;;;11.36;78.22
17362;BME280;8798;51.938;4.348;2023-02-03T09:05:31;102824.31;;;11.37;78.36
17362;BME280;8798;51.938;4.348;2023-02-03T09:07:59;102826.06;;;11.38;78.45
17362;BME280;8798;51.938;4.348;2023-02-03T09:10:27;102823.34;;;11.38;78.84
17362;BME280;8798;51.938;4.348;2023-02-03T09:12:57;102831.31;;;11.39;78.50
17362;BME280;8798;51.938;4.348;2023-02-03T09:15:24;102838.28;;;11.42;78.63
17362;BME280;8798;51.938;4.348;2023-02-03T09:17:52;102852.50;;;11.44;78.83
17362;BME280;8798;51.938;4.348;2023-02-03T09:20:22;102848.88;;;11.45;78.79
17362;BME280;8798;51.938;4.348;2023-02-03T09:22:52;102848.88;;;11.45;78.54
17362;BME280;8798;51.938;4.348;2023-02-03T09:25:20;102844.44;;;11.44;77.99
17362;BME280;8798;51.938;4.348;2023-02-03T09:27:48;102842.59;;;11.45;78.78
17362;BME280;8798;51.938;4.348;2023-02-03T09:30:17;102854.13;;;11.47;78.30
17362;BME280;8798;51.938;4.348;2023-02-03T09:32:45;102862.88;;;11.50;78.14
17362;BME280;8798;51.938;4.348;2023-02-03T09:35:19;102886.78;;;11.55;78.71
17362;BME280;8798;51.938;4.348;2023-02-03T09:37:47;102885.69;;;11.57;78.21
17362;BME280;8798;51.938;4.348;2023-02-03T09:40:19;102900.75;;;11.60;78.22
17362;BME280;8798;51.938;4.348;2023-02-03T09:43:11;102911.31;;;11.63;78.49
17362;BME280;8798;51.938;4.348;2023-02-03T09:45:43;102922.72;;;11.67;77.95
17362;BME280;8798;51.938;4.348;2023-02-03T09:48:13;102945.78;;;11.71;77.97
17362;BME280;8798;51.938;4.348;2023-02-03T09:50:45;102950.94;;;11.74;78.26
17362;BME280;8798;51.938;4.348;2023-02-03T09:53:27;102946.41;;;11.74;78.36
17362;BME280;8798;51.938;4.348;2023-02-03T09:55:57;102942.75;;;11.75;78.38
17362;BME280;8798;51.938;4.348;2023-02-03T09:58:28;102942.75;;;11.75;78.00
17362;BME280;8798;51.938;4.348;2023-02-03T10:01:02;102953.31;;;11.78;78.18
17362;BME280;8798;51.938;4.348;2023-02-03T10:03:36;102953.31;;;11.78;77.75
17362;BME280;8798;51.938;4.348;2023-02-03T10:06:15;102948.78;;;11.79;78.05
17362;BME280;8798;51.938;4.348;2023-02-03T10:09:11;102940.81;;;11.77;78.05
17362;BME280;8798;51.938;4.348;2023-02-03T10:12:07;102943.53;;;11.77;77.98
17362;BME280;8798;51.938;4.348;2023-02-03T10:14:52;102940.81;;;11.77;78.29
17362;BME280;8798;51.938;4.348;2023-02-03T10:17:28;102950.53;;;11.80;78.18
17362;BME280;8798;51.938;4.348;2023-02-03T10:20:02;102980.69;;;11.85;78.08
17362;BME280;8798;51.938;4.348;2023-02-03T10:22:34;102979.50;;;11.89;77.77
17362;BME280;8798;51.938;4.348;2023-02-03T10:25:06;102976.09;;;11.87;77.70
17362;BME280;8798;51.938;4.348;2023-02-03T10:27:40;102979.50;;;11.89;77.64
17362;BME280;8798;51.938;4.348;2023-02-03T10:30:18;102992.66;;;11.94;78.16
17362;BME280;8798;51.938;4.348;2023-02-03T10:32:51;103004.19;;;11.96;77.15
17362;BME280;8798;51.938;4.348;2023-02-03T10:35:21;102996.09;;;11.96;78.15
17362;BME280;8798;51.938;4.348;2023-02-03T10:37:56;102998.72;;;11.97;77.84
17362;BME280;8798;51.938;4.348;2023-02-03T10:40:25;103004.94;;;11.98;77.29
17362;BME280;8798;51.938;4.348;2023-02-03T10:42:55;103019.81;;;12.03;77.99
17362;BME280;8798;51.938;4.348;2023-02-03T10:45:40;103026.94;;;12.04;77.50
17362;BME280;8798;51.938;4.348;2023-02-03T10:48:15;103029.50;;;12.06;77.63
17362;BME280;8798;51.938;4.348;2023-02-03T10:50:47;103030.28;;;12.08;77.19
17362;BME280;8798;51.938;4.348;2023-02-03T10:53:22;103043.53;;;12.11;77.20
17362;BME280;8798;51.938;4.348;2023-02-03T10:56:00;103048.72;;;12.14;77.33
17362;BME280;8798;51.938;4.348;2023-02-03T10:58:30;103054.84;;;12.16;77.41
17362;BME280;8798;51.938;4.348;2023-02-03T11:01:08;103050.44;;;12.15;77.11
17362;BME280;8798;51.938;4.348;2023-02-03T11:03:40;103058.41;;;12.17;77.20
17362;BME280;8798;51.938;4.348;2023-02-03T11:06:11;103049.44;;;12.16;77.01
17362;BME280;8798;51.938;4.348;2023-02-03T11:08:41;103036.09;;;12.15;77.20
17362;BME280;8798;51.938;4.348;2023-02-03T11:11:13;103042.34;;;12.15;77.39
17362;BME280;8798;51.938;4.348;2023-02-03T11:13:41;103044.06;;;12.16;77.36
17362;BME280;8798;51.938;4.348;2023-02-03T11:16:13;103053.66;;;12.20;77.22
17362;BME280;8798;51.938;4.348;2023-02-03T11:18:55;103056.34;;;12.20;77.20
17362;BME280;8798;51.938;4.348;2023-02-03T11:21:26;103054.50;;;12.21;76.76
17362;BME280;8798;51.938;4.348;2023-02-03T11:24:03;103075.53;;;12.29;76.99
17362;BME280;8798;51.938;4.348;2023-02-03T11:26:35;103096.78;;;12.33;77.26
17362;BME280;8798;51.938;4.348;2023-02-03T11:29:04;103109.19;;;12.36;76.90
17362;BME280;8798;51.938;4.348;2023-02-03T11:31:35;103099.38;;;12.35;77.11
17362;BME280;8798;51.938;4.348;2023-02-03T11:34:06;103099.25;;;12.36;77.23
17362;BME280;8798;51.938;4.348;2023-02-03T11:36:41;103089.44;;;12.35;77.08
17362;BME280;8798;51.938;4.348;2023-02-03T11:39:13;103092.16;;;12.35;76.60
17362;BME280;8798;51.938;4.348;2023-02-03T11:41:43;103110.59;;;12.41;77.16
17362;BME280;8798;51.938;4.348;2023-02-03T11:44:16;103131.72;;;12.47;76.47
17362;BME280;8798;51.938;4.348;2023-02-03T11:46:45;103124.72;;;12.45;76.84
17362;BME280;8798;51.938;4.348;2023-02-03T11:52:44;103116.53;;;12.46;76.93
17362;BME280;8798;51.938;4.348;2023-02-03T11:55:37;103119.09;;;12.48;76.71
17362;BME280;8798;51.938;4.348;2023-02-03T11:58:18;103121.69;;;12.50;76.97
17362;BME280;8798;51.938;4.348;2023-02-03T12:01:01;103118.03;;;12.51;76.21
17362;BME280;8798;51.938;4.348;2023-02-03T12:03:47;103127.72;;;12.53;76.29
17362;BME280;8798;51.938;4.348;2023-02-03T12:06:32;103140.03;;;12.57;76.38
17362;BME280;8798;51.938;4.348;2023-02-03T12:09:15;103131.09;;;12.57;76.32
17362;BME280;8798;51.938;4.348;2023-02-03T12:12:00;103127.53;;;12.56;76.10
17362;BME280;8798;51.938;4.348;2023-02-03T12:14:42;103134.53;;;12.59;76.56
17362;BME280;8798;51.938;4.348;2023-02-03T12:17:34;103136.16;;;12.61;76.15
17362;BME280;8798;51.938;4.348;2023-02-03T12:20:23;103118.47;;;12.57;76.71
17362;BME280;8798;51.938;4.348;2023-02-03T12:23:01;103104.22;;;12.55;76.13
17362;BME280;8798;51.938;4.348;2023-02-03T12:25:43;103111.22;;;12.58;76.93
17362;BME280;8798;51.938;4.348;2023-02-03T12:28:32;103116.53;;;12.59;76.30
17362;BME280;8798;51.938;4.348;2023-02-03T12:31:11;103101.44;;;12.57;76.48
17362;BME280;8798;51.938;4.348;2023-02-03T12:33:48;103090.75;;;12.55;76.21
17362;BME280;8798;51.938;4.348;2023-02-03T12:36:21;103079.94;;;12.55;75.97
17362;BME280;8798;51.938;4.348;2023-02-03T12:38:55;103090.66;;;12.57;75.78
17362;BME280;8798;51.938;4.348;2023-02-03T12:41:28;103073.72;;;12.55;76.33
17362;BME280;8798;51.938;4.348;2023-02-03T12:44:00;103079.09;;;12.55;75.68
17362;BME280;8798;51.938;4.348;2023-02-03T12:46:34;103058.63;;;12.52;75.97
17362;BME280;8798;51.938;4.348;2023-02-03T12:49:13;103044.47;;;12.48;75.63
17362;BME280;8798;51.938;4.348;2023-02-03T12:51:47;103042.66;;;12.49;75.79
17362;BME280;8798;51.938;4.348;2023-02-03T12:54:28;103052.38;;;12.52;75.76
17362;BME280;8798;51.938;4.348;2023-02-03T12:57:04;103050.63;;;12.51;75.87
17362;BME280;8798;51.938;4.348;2023-02-03T12:59:35;103043.53;;;12.50;75.53
17362;BME280;8798;51.938;4.348;2023-02-03T13:02:11;103016.88;;;12.45;75.49
17362;BME280;8798;51.938;4.348;2023-02-03T13:04:44;102997.25;;;12.43;76.06
17362;BME280;8798;51.938;4.348;2023-02-03T13:07:18;103000.94;;;12.42;75.81
17362;BME280;8798;51.938;4.348;2023-02-03T13:09:55;103005.34;;;12.43;75.80
17362;BME280;8798;51.938;4.348;2023-02-03T13:12:28;103002.56;;;12.44;75.73
17362;BME280;8798;51.938;4.348;2023-02-03T13:15:05;103010.50;;;12.46;75.83
17362;BME280;8798;51.938;4.348;2023-02-03T13:17:44;103013.22;;;12.46;76.14
17362;BME280;8798;51.938;4.348;2023-02-03T13:20:17;103021.94;;;12.50;75.86
17362;BME280;8798;51.938;4.348;2023-02-03T13:22:45;103041.44;;;12.53;76.06
17362;BME280;8798;51.938;4.348;2023-02-03T13:25:20;103043.94;;;12.56;76.10